createdAt,value
2023-02-04T00:01:17.586Z,20.80
2023-02-04T00:06:21.774Z,20.61
2023-02-04T00:11:24.639Z,20.70
2023-02-04T00:16:27.581Z,20.78
2023-02-04T00:21:31.722Z,20.54
2023-02-04T00:26:34.617Z,20.64
2023-02-04T00:31:37.511Z,20.75
2023-02-04T00:36:41.670Z,20.66
2023-02-04T00:41:44.538Z,20.73
2023-02-04T00:46:48.737Z,20.66
2023-02-04T00:51:53.741Z,20.65
2023-02-04T00:56:56.592Z,20.65
2023-02-04T01:02:00.192Z,20.68
2023-02-04T01:07:04.574Z,20.66
2023-02-04T01:12:07.586Z,20.42
2023-02-04T01:17:11.103Z,20.59
2023-02-04T01:22:15.487Z,20.59
2023-02-04T01:27:18.487Z,20.37
2023-02-04T01:32:21.305Z,20.50
2023-02-04T01:37:25.544Z,20.45
2023-02-04T01:42:28.359Z,20.28
2023-02-04T01:47:31.222Z,20.31
2023-02-04T01:52:38.157Z,20.50
2023-02-04T01:57:42.004Z,20.50
2023-02-04T02:02:47.219Z,20.49
2023-02-04T02:07:52.598Z,20.37
2023-02-04T02:12:55.801Z,20.47
2023-02-04T02:17:59.554Z,20.54
2023-02-04T02:23:11.119Z,20.41
2023-02-04T02:28:18.478Z,20.26
2023-02-04T02:33:22.242Z,20.45
2023-02-04T02:38:25.047Z,20.32
2023-02-04T02:43:30.152Z,20.20
2023-02-04T02:48:35.107Z,20.32
2023-02-04T02:53:38.151Z,20.07
2023-02-04T02:58:42.295Z,20.09
2023-02-04T03:03:47.031Z,20.43
2023-02-04T03:08:51.316Z,20.20
2023-02-04T03:13:55.489Z,20.30
2023-02-04T03:18:58.312Z,20.32
2023-02-04T03:24:01.291Z,20.35
2023-02-04T03:29:07.679Z,20.30
2023-02-04T03:34:10.520Z,20.18
2023-02-04T03:39:13.306Z,20.43
2023-02-04T03:44:18.663Z,20.13
2023-02-04T03:49:23.076Z,20.23
2023-02-04T03:54:26.104Z,20.24
2023-02-04T03:59:30.241Z,20.08
2023-02-04T04:04:33.078Z,20.05
2023-02-04T04:09:37.823Z,20.22
2023-02-04T04:14:42.127Z,20.16
2023-02-04T04:19:45.591Z,20.02
2023-02-04T04:24:49.054Z,20.25
2023-02-04T04:29:53.257Z,20.26
2023-02-04T04:34:56.441Z,20.20
2023-02-04T04:40:00.693Z,20.09
2023-02-04T04:45:07.781Z,20.30
2023-02-04T04:50:11.063Z,20.25
2023-02-04T04:55:13.930Z,20.14
2023-02-04T05:00:21.709Z,20.21
2023-02-04T05:05:24.502Z,20.21
2023-02-04T05:10:27.363Z,20.29
2023-02-04T05:15:31.621Z,20.20
2023-02-04T05:20:34.917Z,20.25
2023-02-04T05:25:37.837Z,20.22
2023-02-04T05:30:42.026Z,20.33
2023-02-04T05:35:45.053Z,20.43
2023-02-04T05:40:47.846Z,20.26
2023-02-04T05:45:52.105Z,20.41
2023-02-04T05:50:54.906Z,20.37
2023-02-04T05:55:57.773Z,20.19
2023-02-04T06:01:02.110Z,20.42
2023-02-04T06:06:05.146Z,20.40
2023-02-04T06:11:07.989Z,20.40
2023-02-04T06:16:14.058Z,20.45
2023-02-04T06:21:17.642Z,20.44
2023-02-04T06:26:20.469Z,20.32
2023-02-04T06:31:24.789Z,20.28
2023-02-04T06:36:27.707Z,20.52
2023-02-04T06:41:30.557Z,20.52
2023-02-04T06:46:34.772Z,20.41
2023-02-04T06:51:37.574Z,20.53
2023-02-04T06:56:40.400Z,20.44
2023-02-04T07:01:44.617Z,20.52
2023-02-04T07:06:47.442Z,20.48
2023-02-04T07:11:50.231Z,20.63
2023-02-04T07:37:20.252Z,20.23
2023-02-04T08:02:22.234Z,20.55
2023-02-04T08:23:41.737Z,20.39
2023-02-04T08:28:44.617Z,20.67
2023-02-04T08:33:47.460Z,20.63
2023-02-04T08:38:52.398Z,20.61
2023-02-04T08:43:55.236Z,20.74
2023-02-04T08:48:58.168Z,20.75
2023-02-04T08:54:02.406Z,20.71
2023-02-04T08:59:05.294Z,20.83
2023-02-04T09:04:08.489Z,20.84
2023-02-04T09:09:12.713Z,20.82
2023-02-04T09:14:15.550Z,20.90
2023-02-04T09:19:23.953Z,20.56
2023-02-04T09:24:28.132Z,20.94
2023-02-04T09:29:31.017Z,20.93
2023-02-04T09:34:34.569Z,21.04
2023-02-04T09:39:38.720Z,21.06
2023-02-04T09:44:41.523Z,21.10
2023-02-04T09:49:46.859Z,20.94
2023-02-04T09:54:51.181Z,20.99
2023-02-04T09:59:54.704Z,21.12
2023-02-04T10:04:58.503Z,21.21
2023-02-04T10:10:02.928Z,21.13
2023-02-04T10:15:10.979Z,21.22
2023-02-04T10:20:15.653Z,21.14
2023-02-04T10:25:21.446Z,21.37
2023-02-04T10:30:26.207Z,21.10
2023-02-04T10:35:29.023Z,21.35
2023-02-04T10:40:34.966Z,21.40
2023-02-04T10:45:38.424Z,21.51
2023-02-04T10:50:41.261Z,21.41
2023-02-04T10:55:45.939Z,21.42
2023-02-04T11:00:48.788Z,21.41
2023-02-04T11:05:52.015Z,21.57
2023-02-04T11:10:59.471Z,21.59
2023-02-04T11:16:12.955Z,21.59
2023-02-04T11:21:22.661Z,21.66
2023-02-04T11:26:35.988Z,21.67
2023-02-04T11:31:57.428Z,21.72
2023-02-04T11:37:12.202Z,21.70
2023-02-04T11:42:21.537Z,21.82
2023-02-04T11:47:25.988Z,21.57
2023-02-04T11:52:28.875Z,21.73
2023-02-04T11:57:39.494Z,21.82
2023-02-04T12:02:43.995Z,21.82
2023-02-04T12:07:48.562Z,21.72
2023-02-04T12:12:55.800Z,21.87
2023-02-04T12:18:03.166Z,21.85
2023-02-04T12:23:06.388Z,22.19
2023-02-04T12:28:10.556Z,21.98
2023-02-04T12:33:14.977Z,22.07
2023-02-04T12:38:19.253Z,22.09
2023-02-04T12:43:27.852Z,22.19
2023-02-04T12:48:31.138Z,22.15
2023-02-04T12:53:34.015Z,22.15
2023-02-04T12:58:38.130Z,22.21
2023-02-04T13:03:40.922Z,22.33
2023-02-04T13:08:43.749Z,22.27
2023-02-04T13:13:47.934Z,22.18
2023-02-04T13:18:50.754Z,22.37
2023-02-04T13:23:53.610Z,22.30
2023-02-04T13:28:57.843Z,22.59
2023-02-04T13:34:00.847Z,22.30
2023-02-04T13:39:04.498Z,22.56
2023-02-04T13:44:08.818Z,22.44
2023-02-04T13:49:11.620Z,22.39
2023-02-04T13:54:14.513Z,22.71
2023-02-04T13:59:20.859Z,22.61
2023-02-04T14:04:23.872Z,22.66
2023-02-04T14:09:26.665Z,22.57
2023-02-04T14:14:30.803Z,22.62
2023-02-04T14:19:33.605Z,22.72
2023-02-04T14:24:36.381Z,22.57
2023-02-04T14:29:40.613Z,22.91
2023-02-04T14:34:43.406Z,22.96
2023-02-04T14:39:46.298Z,22.96
2023-02-04T14:44:50.470Z,23.02
2023-02-04T14:49:53.302Z,22.94
2023-02-04T14:54:56.132Z,22.98
2023-02-04T15:00:00.297Z,23.04
2023-02-04T15:05:03.369Z,23.20
2023-02-04T15:10:07.473Z,23.17
2023-02-04T15:15:12.019Z,23.12
2023-02-04T15:20:14.863Z,22.96
2023-02-04T15:25:17.874Z,23.31
2023-02-04T15:30:22.135Z,23.21
2023-02-04T15:35:24.949Z,23.29
2023-02-04T15:40:30.005Z,23.16
2023-02-04T15:45:34.311Z,23.13
2023-02-04T15:50:37.128Z,23.05
2023-02-04T15:55:40.002Z,22.97
2023-02-04T16:00:44.426Z,22.61
2023-02-04T16:05:47.223Z,21.85
2023-02-04T16:10:50.040Z,21.90
2023-02-04T16:15:54.241Z,22.19
2023-02-04T16:20:57.137Z,23.08
2023-02-04T16:25:59.943Z,22.98
2023-02-04T16:31:04.206Z,23.23
2023-02-04T16:36:11.643Z,23.18
2023-02-04T16:41:14.793Z,22.98
2023-02-04T16:46:19.256Z,23.22
2023-02-04T16:51:22.163Z,23.20
2023-02-04T16:56:27.079Z,23.35
2023-02-04T17:01:31.645Z,23.31
2023-02-04T17:06:35.816Z,23.30
2023-02-04T17:11:38.785Z,23.69
2023-02-04T17:16:43.029Z,23.60
2023-02-04T17:21:46.252Z,23.69
2023-02-04T17:26:49.118Z,23.44
2023-02-04T17:31:53.647Z,23.42
2023-02-04T17:36:56.551Z,23.49
2023-02-04T17:41:59.374Z,23.75
2023-02-04T17:47:04.125Z,23.75
2023-02-04T17:52:07.453Z,23.77
2023-02-04T17:57:18.342Z,23.80
2023-02-04T18:02:26.653Z,23.71
2023-02-04T18:07:29.680Z,23.72
2023-02-04T18:12:32.733Z,23.68
2023-02-04T18:17:36.872Z,23.79
2023-02-04T18:22:39.666Z,23.71
2023-02-04T18:27:42.493Z,23.87
2023-02-04T18:32:46.834Z,23.95
2023-02-04T18:37:50.633Z,23.84
2023-02-04T18:43:04.800Z,23.83
2023-02-04T18:48:55.438Z,23.97
2023-02-04T18:54:02.546Z,24.13
2023-02-04T18:59:13.323Z,24.03
2023-02-04T19:04:22.126Z,24.32
2023-02-04T19:09:27.877Z,23.99
2023-02-04T19:14:37.377Z,23.80
2023-02-04T19:19:41.283Z,23.92
2023-02-04T19:24:45.657Z,23.95
2023-02-04T19:29:49.773Z,24.11
2023-02-04T19:34:53.574Z,24.02
2023-02-04T19:39:57.740Z,23.93
2023-02-04T19:45:02.112Z,23.91
2023-02-04T19:50:22.544Z,23.97
2023-02-04T19:55:32.705Z,24.17
2023-02-04T20:00:46.656Z,24.07
2023-02-04T20:05:49.590Z,24.10
2023-02-04T20:10:53.758Z,24.37
2023-02-04T20:15:57.382Z,24.09
2023-02-04T20:21:01.138Z,24.15
2023-02-04T20:26:05.500Z,24.17
2023-02-04T20:31:23.180Z,24.15
2023-02-04T20:36:44.527Z,24.24
2023-02-04T20:41:48.708Z,24.23
2023-02-04T20:46:51.491Z,24.15
2023-02-04T20:51:59.154Z,24.09
2023-02-04T20:57:08.898Z,24.12
2023-02-04T21:02:17.356Z,24.24
2023-02-04T21:07:21.992Z,24.20
2023-02-04T21:12:26.604Z,24.21
2023-02-04T21:17:29.446Z,24.21
2023-02-04T21:22:32.255Z,23.99
2023-02-04T21:27:36.440Z,24.08
2023-02-04T21:32:39.391Z,24.42
2023-02-04T21:37:42.279Z,24.16
2023-02-04T21:42:46.434Z,24.12
2023-02-04T21:47:50.209Z,24.15
2023-02-04T21:52:53.039Z,24.08
2023-02-04T21:57:57.290Z,24.22
2023-02-04T22:03:00.375Z,24.12
2023-02-04T22:08:03.218Z,24.21
2023-02-04T22:13:07.498Z,24.08
2023-02-04T22:18:11.024Z,24.13
2023-02-04T22:23:13.953Z,24.11
2023-02-04T22:28:18.162Z,24.03
2023-02-04T22:33:21.053Z,24.10
2023-02-04T22:38:23.865Z,23.91
2023-02-04T22:43:27.985Z,24.23
2023-02-04T22:48:30.828Z,24.02
2023-02-04T22:53:33.633Z,24.17
2023-02-04T22:58:37.795Z,23.95
2023-02-04T23:03:40.680Z,24.04
2023-02-04T23:08:43.593Z,23.94
2023-02-04T23:13:47.732Z,23.99
2023-02-04T23:18:50.518Z,23.81
2023-02-04T23:23:53.555Z,24.05
2023-02-04T23:29:00.827Z,23.93
2023-02-04T23:34:03.638Z,23.95
2023-02-04T23:39:06.441Z,23.88
2023-02-04T23:44:10.565Z,24.02
2023-02-04T23:49:13.761Z,23.83
2023-02-04T23:54:16.625Z,23.96
2023-02-04T23:59:20.749Z,23.84
